Flight Track Log - Related Links

Times and Time Zones

All times are in EDT time to prevent confusion due to time zone crossing. See the AAL289 flight status page for this flight to view local times or setup timezone preferences in your user account.

Time Position Orientation Groundspeed Altitude Reporting Facility
EDT Latitude Longitude Course Direction KTS MPH feet Rate Location/Type
Sat 01:37:32 PM 42.0504 -87.9078 230° Southwest  Level FlightAware Approximate
Sat 01:38:32 PM 42.1529 -87.8333 219° Southwest  Level FlightAware Approximate
Sat 01:39:01 PM 41.9833 -88.0167 359° North 235 270 2,600  Level Chicago TRACON
Sat 01:43:43 PM 42.3219 -88.0217 North 278 320 10,600 1,539 Climbing Chicago Center
Sat 01:44:44 PM 42.4094 -88.0197 355° North 294 338 11,400 850 Climbing Chicago Center
Sat 01:45:43 PM 42.4972 -88.0292 356° North 329 379 12,300 1,311 Climbing Chicago Center
Sat 01:46:43 PM 42.6014 -88.0383 357° North 368 423 14,000 1,750 Climbing Chicago Center
Sat 01:47:43 PM 42.7100 -88.0472 358° North 379 436 15,800 1,900 Climbing Chicago Center
Sat 01:48:43 PM 42.8183 -88.0536 357° North 390 449 17,800 1,686 Climbing Chicago Center
Sat 01:49:44 PM 42.9269 -88.0625 357° North 385 443 19,200 1,500 Climbing Chicago Center
Sat 01:50:43 PM 43.0394 -88.0717 357° North 399 459 20,800 1,513 Climbing Chicago Center
Sat 01:51:43 PM 43.1542 -88.0806 357° North 407 468 22,200 1,300 Climbing Chicago Center
Sat 01:52:43 PM 43.2731 -88.0897 356° North 413 475 23,400 1,250 Climbing Chicago Center
Sat 01:53:43 PM 43.4044 -88.1011 358° North 429 494 24,700 1,100 Climbing Chicago Center
Sat 01:54:43 PM 43.5275 -88.1072 356° North 440 506 25,600 875 Climbing Chicago Center
Sat 01:56:55 PM 43.8031 -88.1325 356° North 460 529 27,500 880 Climbing Minneapolis Center
Sat 01:57:54 PM 43.9331 -88.1436 356° North 466 536 28,400 900 Climbing Minneapolis Center
Sat 01:58:55 PM 44.0608 -88.1553 357° North 466 536 29,300 1,100 Climbing Minneapolis Center
Sat 01:59:54 PM 44.1903 -88.1636 357° North 466 536 30,600 1,350 Climbing Minneapolis Center
Sat 02:00:55 PM 44.3139 -88.1728 357° North 456 525 32,000 694 Climbing Minneapolis Center
Sat 02:01:55 PM 44.4353 -88.1819 357° North 443 510 32,000  Level Minneapolis Center
Sat 02:02:54 PM 44.5586 -88.1911 North 443 510 32,000  Level Minneapolis Center
Sat 02:03:54 PM 44.6847 -88.1678 North 448 516 32,000  Level Minneapolis Center
Sat 02:04:55 PM 44.7983 -88.1456 North 453 521 32,000  Level Minneapolis Center
Sat 02:05:54 PM 44.9244 -88.1192 North 458 527 32,000  Level Minneapolis Center
Sat 02:06:54 PM 45.0544 -88.0922 North 463 533 32,000  Level Minneapolis Center
Sat 02:07:54 PM 45.1783 -88.0658 10° North 458 527 32,000  Level Minneapolis Center
Sat 02:08:55 PM 45.3042 -88.0331 North 458 527 32,000  Level Minneapolis Center
Sat 02:09:55 PM 45.4278 -88.0064 North 458 527 32,000  Level Minneapolis Center
Sat 02:10:55 PM 45.5497 -87.9797 North 452 520 32,000  Level Minneapolis Center
Sat 02:11:55 PM 45.6881 -87.9514 11° North 447 514 32,000  Level Minneapolis Center
Sat 02:12:54 PM 45.8075 -87.9186 North 442 509 32,000  Level Minneapolis Center
Sat 02:13:55 PM 45.9211 -87.8983 10° North 448 516 32,000  Level Minneapolis Center
Sat 02:14:55 PM 46.0428 -87.8681 10° North 443 510 32,000  Level Minneapolis Center
Sat 02:15:54 PM 46.1622 -87.8381 North 438 504 32,000  Level Minneapolis Center
Sat 02:16:55 PM 46.2842 -87.8136 North 438 504 32,000  Level Minneapolis Center
Sat 02:17:54 PM 46.4183 -87.7847 North 443 510 32,000  Level Minneapolis Center
Sat 02:18:54 PM 46.5378 -87.7572 North 443 510 32,000  Level Minneapolis Center
Sat 02:19:54 PM 46.6617 -87.7292 North 443 510 32,000  Level Minneapolis Center
Sat 02:20:54 PM 46.7811 -87.7014 North 443 510 32,000  Level Minneapolis Center
Sat 02:21:55 PM 46.9028 -87.6731 North 443 510 32,000  Level Minneapolis Center
Sat 02:22:54 PM 47.0225 -87.6481 10° North 443 510 32,000  Level Minneapolis Center
Sat 02:23:54 PM 47.1397 -87.6169 10° North 437 503 32,000  Level Minneapolis Center
Sat 02:24:54 PM 47.2489 -87.5897 26° Northeast 431 496 32,000  Level Minneapolis Center
Sat 02:25:44 PM 47.3500 -87.5167 11° North 440 506 32,000  Level Winnipeg Center
Sat 02:26:44 PM 47.4667 -87.4833 North 440 506 32,000  Level Winnipeg Center
Sat 02:27:44 PM 47.5833 -87.4667 10° North 440 506 32,000  Level Winnipeg Center
Sat 02:28:44 PM 47.7167 -87.4333 13° North 440 506 32,000  Level Winnipeg Center
Sat 02:29:44 PM 47.8167 -87.4000 10° North 440 506 32,000  Level Winnipeg Center
Sat 02:30:44 PM 47.9500 -87.3667 North 450 518 32,000  Level Winnipeg Center
Sat 02:31:44 PM 48.0667 -87.3500 North 440 506 32,000  Level Winnipeg Center
Sat 02:32:44 PM 48.2000 -87.3167 North 440 506 32,000  Level Winnipeg Center
Sat 02:33:44 PM 48.3167 -87.3000 11° North 440 506 32,000  Level Winnipeg Center
Sat 02:34:44 PM 48.4333 -87.2667 North 440 506 32,000  Level Winnipeg Center
Sat 02:35:44 PM 48.5667 -87.2500 11° North 450 518 32,000  Level Winnipeg Center
Sat 02:36:44 PM 48.6833 -87.2167 North 450 518 32,000  Level Winnipeg Center
Sat 02:37:44 PM 48.8167 -87.2000 11° North 450 518 32,000  Level Winnipeg Center
Sat 02:38:44 PM 48.9333 -87.1667 North 440 506 32,000  Level Winnipeg Center
Sat 02:39:44 PM 49.0500 -87.1500 North 440 506 32,000  Level Winnipeg Center
Sat 02:40:44 PM 49.1833 -87.1167 North 440 506 32,000  Level Winnipeg Center
Sat 02:41:44 PM 49.3000 -87.1000 11° North 440 506 32,000  Level Winnipeg Center
Sat 02:42:44 PM 49.4167 -87.0667 North 440 506 32,000  Level Winnipeg Center
Sat 02:43:44 PM 49.5500 -87.0500 12° North 440 506 32,000  Level Winnipeg Center
Sat 02:44:44 PM 49.6500 -87.0167 North 450 518 32,000  Level Winnipeg Center
Sat 02:45:44 PM 49.7833 -87.0000 10° North 450 518 32,000  Level Winnipeg Center
Sat 02:46:44 PM 49.9000 -86.9667 North 450 518 32,000  Level Winnipeg Center
Sat 02:47:44 PM 50.0333 -86.9333 North 450 518 32,000  Level Winnipeg Center
Sat 02:48:44 PM 50.1500 -86.9167 10° North 450 518 32,000  Level Winnipeg Center
Sat 02:49:44 PM 50.2667 -86.8833 360° North 450 518 32,000  Level Winnipeg Center
Sat 02:50:44 PM 50.4000 -86.8833 26° Northeast 440 506 32,000  Level Winnipeg Center
Sat 02:51:38 PM 50.4667 -86.8333 North 440 506 32,000  Level Edmonton Center
Sat 02:52:38 PM 50.6000 -86.8167 North 440 506 32,000  Level Edmonton Center
Sat 02:53:38 PM 50.7167 -86.8000 North 440 506 32,000  Level Edmonton Center
Sat 02:54:38 PM 50.8500 -86.7667 North 450 518 32,000  Level Edmonton Center
Sat 02:55:38 PM 50.9667 -86.7500 North 450 518 32,000  Level Edmonton Center
Sat 02:56:38 PM 51.1000 -86.7167 North 450 518 32,000  Level Edmonton Center
Sat 02:57:38 PM 51.2333 -86.7000 North 450 518 32,000  Level Edmonton Center
Sat 02:58:38 PM 51.3667 -86.6667 North 460 529 32,000  Level Edmonton Center
Sat 02:59:38 PM 51.4833 -86.6500 North 450 518 32,000  Level Edmonton Center
Sat 03:00:44 PM 51.6500 -86.6333 20° North 470 541 32,000  Level Winnipeg Center
Sat 03:01:38 PM 51.7333 -86.5833 North 460 529 32,000  Level Edmonton Center
Sat 03:02:38 PM 51.8667 -86.5500 North 460 529 32,000  Level Edmonton Center
Sat 03:03:38 PM 51.9833 -86.5333 North 460 529 32,000  Level Edmonton Center
Sat 03:04:38 PM 52.1167 -86.5000 360° North 460 529 32,000  Level Edmonton Center
Sat 03:05:38 PM 52.2500 -86.5000 10° North 470 541 32,000  Level Edmonton Center
Sat 03:06:38 PM 52.3667 -86.4667 North 470 541 32,000  Level Edmonton Center
Sat 03:07:38 PM 52.5000 -86.4333 North 470 541 32,000  Level Edmonton Center
Sat 03:08:38 PM 52.6333 -86.4000 North 470 541 32,000  Level Edmonton Center
Sat 03:09:38 PM 52.7667 -86.3667 360° North 470 541 32,000  Level Edmonton Center
Sat 03:10:38 PM 52.9000 -86.3667 North 480 552 32,000  Level Edmonton Center
Sat 03:11:38 PM 53.0333 -86.3333 North 480 552 32,000  Level Edmonton Center
Sat 03:12:38 PM 53.1667 -86.3167 North 480 552 32,000  Level Edmonton Center
Sat 03:13:38 PM 53.3000 -86.2833 13° North 470 541 32,000  Level Edmonton Center
Sat 03:14:38 PM 53.4333 -86.2333 North 470 541 32,000  Level Edmonton Center
Sat 03:15:38 PM 53.5500 -86.2167 North 470 541 32,000  Level Edmonton Center
Sat 03:16:38 PM 53.6833 -86.2000 North 470 541 32,000  Level Edmonton Center
Sat 03:17:38 PM 53.8167 -86.1667 North 470 541 32,000  Level Edmonton Center
Sat 03:18:38 PM 53.9500 -86.1333 North 470 541 32,000  Level Edmonton Center
Sat 03:19:38 PM 54.0667 -86.1167 North 470 541 32,000  Level Edmonton Center
Sat 03:20:38 PM 54.2000 -86.0833 12° North 470 541 32,000  Level Edmonton Center
Sat 03:21:38 PM 54.3333 -86.0333 360° North 470 541 32,000  Level Edmonton Center
Sat 03:22:38 PM 54.4500 -86.0333 North 470 541 32,000  Level Edmonton Center
Sat 03:23:38 PM 54.5833 -86.0000 North 470 541 32,000  Level Edmonton Center
Sat 03:24:38 PM 54.7167 -85.9667 North 470 541 32,000  Level Edmonton Center
Sat 03:25:38 PM 54.8500 -85.9333 360° North 470 541 32,000  Level Edmonton Center
Sat 03:26:38 PM 54.9833 -85.9333 North 470 541 32,000  Level Edmonton Center
Sat 03:27:38 PM 55.1167 -85.9167 360° North 460 529 32,000  Level Edmonton Center
Sat 03:28:38 PM 55.2333 -85.9167 360° North 450 518 32,000  Level Edmonton Center
Sat 03:29:38 PM 55.3833 -85.9167 360° North 450 518 32,000  Level Edmonton Center
Sat 03:30:38 PM 55.5000 -85.9167 360° North 460 529 32,000  Level Edmonton Center
Sat 03:31:38 PM 55.6167 -85.9167 360° North 450 518 32,000  Level Edmonton Center
Sat 03:32:38 PM 55.7500 -85.9167 North 450 518 32,000  Level Edmonton Center
Sat 03:33:38 PM 55.8667 -85.9000 360° North 440 506 32,000  Level Edmonton Center
Sat 03:34:38 PM 55.9833 -85.9000 352° North 450 518 32,000  Level Edmonton Center
Sat 03:35:38 PM 56.1167 -85.9333 North 450 518 32,000  Level Edmonton Center
Sat 03:36:38 PM 56.2500 -85.9167 360° North 450 518 32,000  Level Edmonton Center
Sat 03:37:38 PM 56.3833 -85.9167 353° North 450 518 32,000 19 Level Edmonton Center
Sat 03:45:32 PM 57.4273 -86.2089 353° North  Level FlightAware Approximate
Sat 03:46:32 PM 57.5594 -86.2471 353° North  Level FlightAware Approximate
Sat 03:47:32 PM 57.6915 -86.2856 353° North  Level FlightAware Approximate
Sat 03:48:32 PM 57.8236 -86.3243 353° North  Level FlightAware Approximate
Sat 03:49:32 PM 57.9556 -86.3633 353° North  Level FlightAware Approximate
Sat 03:50:32 PM 58.0877 -86.4027 353° North  Level FlightAware Approximate
Sat 03:51:32 PM 58.2197 -86.4423 353° North  Level FlightAware Approximate
Sat 03:52:32 PM 58.3517 -86.4822 353° North  Level FlightAware Approximate
Sat 03:53:32 PM 58.4837 -86.5224 353° North  Level FlightAware Approximate
Sat 03:54:32 PM 58.6157 -86.5629 353° North  Level FlightAware Approximate
Sat 03:55:32 PM 58.7477 -86.6037 353° North  Level FlightAware Approximate
Sat 03:56:32 PM 58.8797 -86.6448 353° North  Level FlightAware Approximate
Sat 03:57:32 PM 59.0117 -86.6863 353° North  Level FlightAware Approximate
Sat 03:58:32 PM 59.1436 -86.7280 353° North  Level FlightAware Approximate
Sat 03:59:32 PM 59.2755 -86.7701 353° North  Level FlightAware Approximate
Sat 04:00:32 PM 59.4075 -86.8125 353° North  Level FlightAware Approximate
Sat 04:01:32 PM 59.5394 -86.8552 353° North  Level FlightAware Approximate
Sat 04:02:32 PM 59.6712 -86.8983 353° North  Level FlightAware Approximate
Sat 04:03:32 PM 59.8031 -86.9417 353° North  Level FlightAware Approximate
Sat 04:04:32 PM 59.9350 -86.9855 353° North  Level FlightAware Approximate
Sat 04:05:32 PM 60.0668 -87.0296 353° North  Level FlightAware Approximate
Sat 04:06:32 PM 60.1987 -87.0741 353° North  Level FlightAware Approximate
Sat 04:07:32 PM 60.3305 -87.1189 353° North  Level FlightAware Approximate
Sat 04:08:32 PM 60.4575 -87.1625 353° North  Level FlightAware Approximate
Sat 04:09:32 PM 60.5845 -87.2063 353° North  Level FlightAware Approximate
Sat 04:10:32 PM 60.7115 -87.2505 353° North  Level FlightAware Approximate
Sat 04:11:32 PM 60.8384 -87.2951 353° North  Level FlightAware Approximate
Sat 04:12:32 PM 60.9654 -87.3400 353° North  Level FlightAware Approximate
Sat 04:13:32 PM 61.0923 -87.3853 353° North  Level FlightAware Approximate
Sat 04:14:32 PM 61.2192 -87.4310 353° North  Level FlightAware Approximate
Sat 04:15:32 PM 61.3461 -87.4770 353° North  Level FlightAware Approximate
Sat 04:16:32 PM 61.4730 -87.5234 353° North  Level FlightAware Approximate
Sat 04:17:32 PM 61.5999 -87.5702 353° North  Level FlightAware Approximate
Sat 04:18:32 PM 61.7267 -87.6174 353° North  Level FlightAware Approximate
Sat 04:19:32 PM 61.8536 -87.6649 353° North  Level FlightAware Approximate
Sat 04:20:32 PM 61.9804 -87.7129 353° North  Level FlightAware Approximate
Sat 04:21:32 PM 62.1072 -87.7612 353° North  Level FlightAware Approximate
Sat 04:22:32 PM 62.2340 -87.8100 353° North  Level FlightAware Approximate
Sat 04:23:32 PM 62.3608 -87.8592 353° North  Level FlightAware Approximate
Sat 04:24:32 PM 62.4863 -87.9206 353° North  Level FlightAware Approximate
Sat 04:25:32 PM 62.6131 -87.9701 353° North  Level FlightAware Approximate
Sat 04:26:32 PM 62.7399 -88.0199 353° North  Level FlightAware Approximate
Sat 04:27:32 PM 62.8666 -88.0702 353° North  Level FlightAware Approximate
Sat 04:28:32 PM 62.9933 -88.1209 353° North  Level FlightAware Approximate
Sat 04:29:32 PM 63.1200 -88.1721 353° North  Level FlightAware Approximate
Sat 04:30:32 PM 63.2467 -88.2237 353° North  Level FlightAware Approximate
Sat 04:31:32 PM 63.3734 -88.2757 353° North  Level FlightAware Approximate
Sat 04:32:32 PM 63.5001 -88.3282 353° North  Level FlightAware Approximate
Sat 04:33:32 PM 63.6267 -88.3812 353° North  Level FlightAware Approximate
Sat 04:34:32 PM 63.7533 -88.4347 353° North  Level FlightAware Approximate
Sat 04:35:32 PM 63.8799 -88.4886 353° North  Level FlightAware Approximate
Sat 04:36:32 PM 64.0065 -88.5431 353° North  Level FlightAware Approximate
Sat 04:37:32 PM 64.1330 -88.5980 353° North  Level FlightAware Approximate
Sat 04:38:32 PM 64.2596 -88.6534 353° North  Level FlightAware Approximate
Sat 04:39:32 PM 64.3861 -88.7093 353° North  Level FlightAware Approximate
Sat 04:40:32 PM 64.5126 -88.7658 353° North  Level FlightAware Approximate
Sat 04:41:32 PM 64.6391 -88.8228 353° North  Level FlightAware Approximate
Sat 04:42:32 PM 64.7655 -88.8803 353° North  Level FlightAware Approximate
Sat 04:43:32 PM 64.8919 -88.9383 353° North  Level FlightAware Approximate
Sat 04:44:32 PM 65.0183 -88.9969 353° North  Level FlightAware Approximate
Sat 04:45:32 PM 65.1447 -89.0561 353° North  Level FlightAware Approximate
Sat 04:46:32 PM 65.2711 -89.1158 353° North  Level FlightAware Approximate
Sat 04:47:32 PM 65.3974 -89.1761 354° North  Level FlightAware Approximate
Sat 04:48:32 PM 65.5237 -89.2370 354° North  Level FlightAware Approximate
Sat 04:49:32 PM 65.6500 -89.2985 354° North  Level FlightAware Approximate
Sat 04:50:32 PM 65.7763 -89.3606 354° North  Level FlightAware Approximate
Sat 04:51:32 PM 65.9025 -89.4232 354° North  Level FlightAware Approximate
Sat 04:52:32 PM 66.0287 -89.4866 354° North  Level FlightAware Approximate
Sat 04:53:32 PM 66.1549 -89.5505 354° North  Level FlightAware Approximate
Sat 04:54:32 PM 66.2810 -89.6151 354° North  Level FlightAware Approximate
Sat 04:55:32 PM 66.4072 -89.6803 355° North  Level FlightAware Approximate
Sat 04:56:32 PM 66.5333 -89.7462 355° North  Level FlightAware Approximate
Sat 04:57:32 PM 66.6593 -89.8128 355° North  Level FlightAware Approximate
Sat 04:58:32 PM 66.7854 -89.8800 355° North  Level FlightAware Approximate
Sat 04:59:32 PM 66.9114 -89.9480 356° North  Level FlightAware Approximate
Sat 05:00:32 PM 67.0364 -90.0264 356° North  Level FlightAware Approximate
Sat 05:01:32 PM 67.1628 -90.0904 356° North  Level FlightAware Approximate
Sat 05:02:32 PM 67.2887 -90.1606 357° North  Level FlightAware Approximate
Sat 05:03:32 PM 67.4146 -90.2316 357° North  Level FlightAware Approximate
Sat 05:04:32 PM 67.5404 -90.3034 358° North  Level FlightAware Approximate
Sat 05:05:32 PM 67.6662 -90.3759 359° North  Level FlightAware Approximate
Sat 05:06:32 PM 67.7920 -90.4492 359° North  Level FlightAware Approximate
Sat 05:07:32 PM 67.9177 -90.5232 360° North  Level FlightAware Approximate
Sat 05:08:32 PM 68.0435 -90.5981 North  Level FlightAware Approximate
Sat 05:09:32 PM 68.1691 -90.6738 North  Level FlightAware Approximate
Sat 05:10:32 PM 68.2948 -90.7504 North  Level FlightAware Approximate
Sat 05:11:32 PM 68.4204 -90.8278 North  Level FlightAware Approximate
Sat 05:12:32 PM 68.5460 -90.9060 North  Level FlightAware Approximate
Sat 05:13:32 PM 68.6715 -90.9851 12° North  Level FlightAware Approximate
Sat 05:14:32 PM 68.7970 -91.0651 16° North  Level FlightAware Approximate
Sat 05:15:32 PM 68.9225 -91.1461 22° Northeast  Level FlightAware Approximate
Sat 05:16:32 PM 69.0479 -91.2279 30° Northeast  Level FlightAware Approximate
Sat 05:17:32 PM 69.1733 -91.3107 42° Northeast  Level FlightAware Approximate
Sat 05:18:32 PM 69.2986 -91.3945 59° Northeast  Level FlightAware Approximate
Sat 05:19:32 PM 69.4239 -91.4792 80° East  Level FlightAware Approximate
Sat 05:20:32 PM 69.5492 -91.5649 100° East  Level FlightAware Approximate
Sat 05:21:20 PM 69.4833 -90.5000 345° North 460 529 34,000  Level Edmonton Center
Sat 05:21:32 PM 69.6744 -91.6516 345° North  Level FlightAware Approximate
Sat 05:22:32 PM 69.7996 -91.7394 345° North  Level FlightAware Approximate
Sat 05:23:32 PM 69.9247 -91.8282 345° North  Level FlightAware Approximate
Sat 05:24:32 PM 70.0498 -91.9181 345° North  Level FlightAware Approximate
Sat 05:25:32 PM 70.1749 -92.0090 345° North  Level FlightAware Approximate
Sat 05:32:32 PM 70.3792 -91.1410 344° North  Level FlightAware Approximate
Sat 05:33:32 PM 70.5061 -91.2465 344° North  Level FlightAware Approximate
Sat 05:34:32 PM 70.6331 -91.3533 344° North  Level FlightAware Approximate
Sat 05:35:32 PM 70.7600 -91.4614 344° North  Level FlightAware Approximate
Sat 05:36:32 PM 70.8868 -91.5709 344° North  Level FlightAware Approximate
Sat 05:37:32 PM 71.0135 -91.6818 344° North  Level FlightAware Approximate
Sat 05:38:32 PM 71.1402 -91.7942 344° North  Level FlightAware Approximate
Sat 05:39:32 PM 71.2668 -91.9080 344° North  Level FlightAware Approximate
Sat 05:40:32 PM 71.3933 -92.0233 343° North  Level FlightAware Approximate
Sat 05:41:32 PM 71.5198 -92.1401 343° North  Level FlightAware Approximate
Sat 05:42:32 PM 71.6462 -92.2585 343° North  Level FlightAware Approximate
Sat 05:43:32 PM 71.7725 -92.3785 343° North  Level FlightAware Approximate
Sat 05:44:32 PM 71.8988 -92.5001 343° North  Level FlightAware Approximate
Sat 05:45:32 PM 72.0260 -92.6112 343° North  Level FlightAware Approximate
Sat 05:46:32 PM 72.1520 -92.7363 343° North  Level FlightAware Approximate
Sat 05:47:32 PM 72.2765 -92.8771 343° North  Level FlightAware Approximate
Sat 05:48:32 PM 72.4031 -92.9989 342° North  Level FlightAware Approximate
Sat 05:49:32 PM 72.5295 -93.1225 342° North  Level FlightAware Approximate
Sat 05:50:32 PM 72.6559 -93.2477 342° North  Level FlightAware Approximate
Sat 05:51:32 PM 72.7822 -93.3748 342° North  Level FlightAware Approximate
Sat 05:52:32 PM 72.9084 -93.5037 342° North  Level FlightAware Approximate
Sat 05:53:32 PM 73.0345 -93.6344 342° North  Level FlightAware Approximate
Sat 05:54:32 PM 73.1606 -93.7671 342° North  Level FlightAware Approximate
Sat 05:55:32 PM 73.2865 -93.9016 342° North  Level FlightAware Approximate
Sat 05:56:32 PM 73.4124 -94.0382 341° North  Level FlightAware Approximate
Sat 05:57:32 PM 73.5382 -94.1768 341° North  Level FlightAware Approximate
Sat 05:58:32 PM 73.6639 -94.3175 341° North  Level FlightAware Approximate
Sat 05:59:32 PM 73.7895 -94.4603 341° North  Level FlightAware Approximate
Sat 06:00:32 PM 73.9150 -94.6052 341° North  Level FlightAware Approximate
Sat 06:01:32 PM 74.0404 -94.7524 341° North  Level FlightAware Approximate
Sat 06:02:32 PM 74.1657 -94.9019 341° North  Level FlightAware Approximate
Sat 06:03:32 PM 74.2909 -95.0536 340° North  Level FlightAware Approximate
Sat 06:04:32 PM 74.4160 -95.2078 340° North  Level FlightAware Approximate
Sat 06:05:32 PM 74.5409 -95.3643 340° North  Level FlightAware Approximate
Sat 06:06:32 PM 74.6658 -95.5234 340° North  Level FlightAware Approximate
Sat 06:07:32 PM 74.7906 -95.6850 340° North  Level FlightAware Approximate
Sat 06:08:32 PM 74.9152 -95.8492 339° North  Level FlightAware Approximate
Sat 06:09:32 PM 75.0397 -96.0161 339° North  Level FlightAware Approximate
Sat 06:10:32 PM 75.1641 -96.1858 339° North  Level FlightAware Approximate
Sat 06:11:32 PM 75.2884 -96.3582 339° North  Level FlightAware Approximate
Sat 06:12:32 PM 75.4125 -96.5335 339° North  Level FlightAware Approximate
Sat 06:13:32 PM 75.5365 -96.7117 339° North  Level FlightAware Approximate
Sat 06:14:32 PM 75.6604 -96.8930 338° Northwest  Level FlightAware Approximate
Sat 06:15:32 PM 75.7841 -97.0773 338° Northwest  Level FlightAware Approximate
Sat 06:16:32 PM 75.9077 -97.2648 338° Northwest  Level FlightAware Approximate
Sat 06:17:32 PM 76.0311 -97.4556 338° Northwest  Level FlightAware Approximate
Sat 06:18:32 PM 76.1544 -97.6497 338° Northwest  Level FlightAware Approximate
Sat 06:19:32 PM 76.2775 -97.8472 337° Northwest  Level FlightAware Approximate
Sat 06:20:32 PM 76.4005 -98.0482 337° Northwest  Level FlightAware Approximate
Sat 06:21:32 PM 76.5233 -98.2529 337° Northwest  Level FlightAware Approximate
Sat 06:22:32 PM 76.6460 -98.4612 337° Northwest  Level FlightAware Approximate
Sat 06:23:32 PM 76.7684 -98.6732 336° Northwest  Level FlightAware Approximate
Sat 06:24:32 PM 76.8907 -98.8892 336° Northwest  Level FlightAware Approximate
Sat 06:25:32 PM 77.0128 -99.1092 336° Northwest  Level FlightAware Approximate
Sat 06:26:32 PM 77.1347 -99.3333 336° Northwest  Level FlightAware Approximate
Sat 06:27:32 PM 77.2564 -99.5615 336° Northwest  Level FlightAware Approximate
Sat 06:28:32 PM 77.3780 -99.7942 335° Northwest  Level FlightAware Approximate
Sat 06:29:32 PM 77.4993 -100.0312 335° Northwest  Level FlightAware Approximate
Sat 06:30:32 PM 77.6204 -100.2728 335° Northwest  Level FlightAware Approximate
Sat 06:31:32 PM 77.7413 -100.5191 334° Northwest  Level FlightAware Approximate
Sat 06:32:32 PM 77.8619 -100.7703 334° Northwest  Level FlightAware Approximate
Sat 06:33:32 PM 77.9824 -101.0264 334° Northwest  Level FlightAware Approximate
Sat 06:34:32 PM 78.1006 -101.3075 334° Northwest  Level FlightAware Approximate
Sat 06:35:32 PM 78.2186 -101.5941 333° Northwest  Level FlightAware Approximate
Sat 06:36:32 PM 78.3363 -101.8865 333° Northwest  Level FlightAware Approximate
Sat 06:37:32 PM 78.4536 -102.1847 333° Northwest  Level FlightAware Approximate
Sat 06:38:32 PM 78.5707 -102.4890 332° Northwest  Level FlightAware Approximate
Sat 06:39:32 PM 78.6874 -102.7995 332° Northwest  Level FlightAware Approximate
Sat 06:40:32 PM 78.8038 -103.1163 332° Northwest  Level FlightAware Approximate
Sat 06:41:32 PM 78.9199 -103.4397 332° Northwest  Level FlightAware Approximate
Sat 06:42:32 PM 79.0356 -103.7699 331° Northwest  Level FlightAware Approximate
Sat 06:43:32 PM 79.1510 -104.1070 331° Northwest  Level FlightAware Approximate
Sat 06:44:32 PM 79.2660 -104.4513 331° Northwest  Level FlightAware Approximate
Sat 06:45:32 PM 79.3806 -104.8029 330° Northwest  Level FlightAware Approximate
Sat 06:46:32 PM 79.4948 -105.1620 330° Northwest  Level FlightAware Approximate
Sat 06:47:32 PM 79.6085 -105.5290 329° Northwest  Level FlightAware Approximate
Sat 06:48:32 PM 79.7219 -105.9040 329° Northwest  Level FlightAware Approximate
Sat 06:49:32 PM 79.8348 -106.2872 329° Northwest  Level FlightAware Approximate
Sat 06:50:32 PM 79.9473 -106.6790 328° Northwest  Level FlightAware Approximate
Sat 06:51:32 PM 80.0593 -107.0795 328° Northwest  Level FlightAware Approximate
Sat 06:52:32 PM 80.1708 -107.4890 328° Northwest  Level FlightAware Approximate
Sat 06:53:32 PM 80.2818 -107.9078 327° Northwest  Level FlightAware Approximate
Sat 06:54:32 PM 80.3923 -108.3362 327° Northwest  Level FlightAware Approximate
Sat 06:55:32 PM 80.5022 -108.7744 326° Northwest  Level FlightAware Approximate
Sat 06:56:32 PM 80.6116 -109.2227 326° Northwest  Level FlightAware Approximate
Sat 06:57:32 PM 80.7204 -109.6815 325° Northwest  Level FlightAware Approximate
Sat 06:58:32 PM 80.8286 -110.1511 325° Northwest  Level FlightAware Approximate
Sat 06:59:32 PM 80.9362 -110.6317 324° Northwest  Level FlightAware Approximate
Sat 07:00:32 PM 81.0431 -111.1237 324° Northwest  Level FlightAware Approximate
Sat 07:01:32 PM 81.1494 -111.6276 323° Northwest  Level FlightAware Approximate
Sat 07:02:32 PM 81.2550 -112.1435 323° Northwest  Level FlightAware Approximate
Sat 07:03:32 PM 81.3599 -112.6719 322° Northwest  Level FlightAware Approximate
Sat 07:04:32 PM 81.4640 -113.2131 322° Northwest  Level FlightAware Approximate
Sat 07:05:32 PM 81.5899 -113.0363 321° Northwest  Level FlightAware Approximate
Sat 07:06:32 PM 81.6867 -113.6516 320° Northwest  Level FlightAware Approximate
Sat 07:07:32 PM 81.7825 -114.2812 320° Northwest  Level FlightAware Approximate
Sat 07:08:32 PM 81.8773 -114.9254 319° Northwest  Level FlightAware Approximate
Sat 07:09:32 PM 81.9711 -115.5847 319° Northwest  Level FlightAware Approximate
Sat 07:10:32 PM 82.0638 -116.2594 318° Northwest  Level FlightAware Approximate
Sat 07:11:32 PM 82.1554 -116.9498 318° Northwest  Level FlightAware Approximate
Sat 07:12:32 PM 82.2459 -117.6564 317° Northwest  Level FlightAware Approximate
Sat 07:13:32 PM 82.3352 -118.3794 317° Northwest  Level FlightAware Approximate
Sat 07:14:32 PM 82.4232 -119.1192 316° Northwest  Level FlightAware Approximate
Sat 07:15:32 PM 82.5100 -119.8762 315° West  Level FlightAware Approximate
Sat 07:16:32 PM 82.5954 -120.6507 315° West  Level FlightAware Approximate
Sat 07:17:32 PM 82.6795 -121.4430 314° West  Level FlightAware Approximate
Sat 07:18:32 PM 82.7621 -122.2534 314° West  Level FlightAware Approximate
Sat 07:19:32 PM 82.8433 -123.0824 313° West  Level FlightAware Approximate
Sat 07:20:32 PM 82.9229 -123.9300 313° West  Level FlightAware Approximate
Sat 07:21:32 PM 83.0010 -124.7967 312° West  Level FlightAware Approximate
Sat 07:22:32 PM 83.0775 -125.6826 312° West  Level FlightAware Approximate
Sat 07:23:32 PM 83.1523 -126.5880 311° West  Level FlightAware Approximate
Sat 07:24:32 PM 83.2254 -127.5131 311° West  Level FlightAware Approximate
Sat 07:25:32 PM 83.2967 -128.4580 311° West  Level FlightAware Approximate
Sat 07:26:32 PM 83.3661 -129.4229 310° West  Level FlightAware Approximate
Sat 07:27:32 PM 83.4336 -130.4078 310° West  Level FlightAware Approximate
Sat 07:28:32 PM 83.4992 -131.4128 310° West  Level FlightAware Approximate
Sat 07:29:32 PM 83.5628 -132.4378 311° West  Level FlightAware Approximate
Sat 07:30:32 PM 83.6242 -133.4828 311° West  Level FlightAware Approximate
Sat 07:31:32 PM 83.6835 -134.5478 312° West  Level FlightAware Approximate
Sat 07:32:32 PM 83.7407 -135.6325 314° West  Level FlightAware Approximate
Sat 07:33:00 PM 84.2333 -141.0000 360° North 467 537 34,000  Level ETMS Enhanced Traffic Management System
Sat 07:33:19 PM 84.2500 -141.0000 180° South 486 559 34,000  Level Anchorage Center
Sat 07:33:20 PM 84.2333 -141.0000 290° West 467 537 34,000  Level ETMS Enhanced Traffic Management System
Sat 07:33:32 PM 83.7955 -136.7367 301° West  Level FlightAware Approximate
Sat 07:34:32 PM 83.8480 -137.8601 300° West  Level FlightAware Approximate
Sat 07:35:32 PM 83.8982 -139.0023 300° West  Level FlightAware Approximate
Sat 07:36:32 PM 83.9459 -140.1629 299° West  Level FlightAware Approximate
Sat 07:40:32 PM 84.5410 -154.7126 275° West 486 559 34,000  Level FlightAware Transoceanic
Sat 07:41:32 PM 84.5516 -156.0734 274° West 486 559 34,000  Level FlightAware Transoceanic
Sat 07:42:32 PM 84.5592 -157.4388 273° West 486 559 34,000  Level FlightAware Transoceanic
Sat 07:43:32 PM 84.5637 -158.8072 271° West 486 559 34,000  Level FlightAware Transoceanic
Sat 07:44:32 PM 84.5651 -160.1771 270° West 486 559 34,000  Level FlightAware Transoceanic
Sat 07:45:32 PM 84.5634 -161.5469 269° West 486 559 34,000  Level FlightAware Transoceanic
Sat 07:46:32 PM 84.5586 -162.9151 267° West 486 559 34,000  Level FlightAware Transoceanic
Sat 07:47:32 PM 84.5508 -164.2801 266° West 486 559 34,000  Level FlightAware Transoceanic
Sat 07:48:32 PM 84.5399 -165.6405 265° West 486 559 34,000  Level FlightAware Transoceanic
Sat 07:49:32 PM 84.5259 -166.9947 263° West 486 559 34,000  Level FlightAware Transoceanic
Sat 07:50:32 PM 84.5089 -168.3412 269° West 486 559 34,000  Level FlightAware Transoceanic
Sat 07:51:32 PM 84.5063 -169.6742 252° West  Level FlightAware Approximate
Sat 07:52:32 PM 84.4647 -170.9423 261° West  Level Estimated
Sat 07:53:32 PM 84.3300 -177.5408 253° West  Level FlightAware Approximate
Sat 07:54:32 PM 84.2913 -178.7796 252° West  Level FlightAware Approximate
Sat 07:55:32 PM 84.2500 179.9987 251° West  Level FlightAware Approximate
Sat 07:56:32 PM 84.2061 178.7950 249° West  Level FlightAware Approximate
Sat 07:57:32 PM 84.1597 177.6098 248° West  Level FlightAware Approximate
Sat 07:58:32 PM 84.1109 176.4437 247° West  Level FlightAware Approximate
Sat 07:59:32 PM 84.0597 175.2971 246° West  Level FlightAware Approximate
Sat 08:00:32 PM 84.0062 174.1705 245° Southwest  Level FlightAware Approximate
Sat 08:01:32 PM 83.9504 173.0643 244° Southwest  Level FlightAware Approximate
Sat 08:02:32 PM 83.8924 171.9785 243° Southwest  Level FlightAware Approximate
Sat 08:03:32 PM 83.8323 170.9134 242° Southwest  Level FlightAware Approximate
Sat 08:04:32 PM 83.7701 169.8692 241° Southwest  Level FlightAware Approximate
Sat 08:05:32 PM 83.7059 168.8459 240° Southwest  Level FlightAware Approximate
Sat 08:06:32 PM 83.6398 167.8434 239° Southwest  Level FlightAware Approximate
Sat 08:07:32 PM 83.5717 166.8618 238° Southwest  Level FlightAware Approximate
Sat 08:08:32 PM 83.5018 165.9010 237° Southwest  Level FlightAware Approximate
Sat 08:09:32 PM 83.4302 164.9608 236° Southwest  Level FlightAware Approximate
Sat 08:10:32 PM 83.3568 164.0410 235° Southwest  Level FlightAware Approximate
Sat 08:11:32 PM 83.2818 163.1414 234° Southwest  Level FlightAware Approximate
Sat 08:12:32 PM 83.2052 162.2618 233° Southwest  Level FlightAware Approximate
Sat 08:13:32 PM 83.1270 161.4020 232° Southwest  Level FlightAware Approximate
Sat 08:14:32 PM 83.0473 160.5615 231° Southwest  Level FlightAware Approximate
Sat 08:15:32 PM 82.9662 159.7402 231° Southwest  Level FlightAware Approximate
Sat 08:16:32 PM 82.8837 158.9377 230° Southwest  Level FlightAware Approximate
Sat 08:17:32 PM 82.7998 158.1536 229° Southwest  Level FlightAware Approximate
Sat 08:18:32 PM 82.7146 157.3877 228° Southwest  Level FlightAware Approximate
Sat 08:19:32 PM 82.6282 156.6394 227° Southwest  Level FlightAware Approximate
Sat 08:20:32 PM 82.5405 155.9086 227° Southwest  Level FlightAware Approximate
Sat 08:21:32 PM 82.4517 155.1947 226° Southwest  Level FlightAware Approximate
Sat 08:22:32 PM 82.3617 154.4975 225° Southwest  Level FlightAware Approximate
Sat 08:23:32 PM 82.2707 153.8165 225° Southwest  Level FlightAware Approximate
Sat 08:24:32 PM 82.1786 153.1513 224° Southwest  Level FlightAware Approximate
Sat 08:25:32 PM 82.0855 152.5016 223° Southwest  Level FlightAware Approximate
Sat 08:26:32 PM 81.9914 151.8670 223° Southwest  Level FlightAware Approximate
Sat 08:27:32 PM 81.8963 151.2471 222° Southwest  Level FlightAware Approximate
Sat 08:28:32 PM 81.8004 150.6415 222° Southwest  Level FlightAware Approximate
Sat 08:29:32 PM 81.7035 150.0500 221° Southwest  Level FlightAware Approximate
Sat 08:30:32 PM 81.6058 149.4720 220° Southwest  Level FlightAware Approximate
Sat 08:31:32 PM 81.5073 148.9073 220° Southwest  Level FlightAware Approximate
Sat 08:32:32 PM 81.4080 148.3555 219° Southwest  Level FlightAware Approximate
Sat 08:33:32 PM 81.3079 147.8163 219° Southwest  Level FlightAware Approximate
Sat 08:34:32 PM 81.2071 147.2893 218° Southwest  Level FlightAware Approximate
Sat 08:35:32 PM 81.1056 146.7742 218° Southwest  Level FlightAware Approximate
Sat 08:36:32 PM 81.0034 146.2707 217° Southwest  Level FlightAware Approximate
Sat 08:37:32 PM 80.9005 145.7784 217° Southwest  Level FlightAware Approximate
Sat 08:38:32 PM 80.7969 145.2971 216° Southwest  Level FlightAware Approximate
Sat 08:39:32 PM 80.6928 144.8264 216° Southwest  Level FlightAware Approximate
Sat 08:40:32 PM 80.5880 144.3661 215° Southwest  Level FlightAware Approximate
Sat 08:41:32 PM 80.4827 143.9159 215° Southwest  Level FlightAware Approximate
Sat 08:42:32 PM 80.3767 143.4754 214° Southwest  Level FlightAware Approximate
Sat 08:43:32 PM 80.2703 143.0445 214° Southwest  Level FlightAware Approximate
Sat 08:44:32 PM 80.1633 142.6229 214° Southwest  Level FlightAware Approximate
Sat 08:45:32 PM 80.0558 142.2102 213° Southwest  Level FlightAware Approximate
Sat 08:46:32 PM 79.9478 141.8063 213° Southwest  Level FlightAware Approximate
Sat 08:47:32 PM 79.8393 141.4109 212° Southwest  Level FlightAware Approximate
Sat 08:48:32 PM 79.7304 141.0238 212° Southwest  Level FlightAware Approximate
Sat 08:49:32 PM 79.6210 140.6448 212° Southwest  Level FlightAware Approximate
Sat 08:50:32 PM 79.5112 140.2736 211° Southwest  Level FlightAware Approximate
Sat 08:51:32 PM 79.4009 139.9100 211° Southwest  Level FlightAware Approximate
Sat 08:52:32 PM 79.2903 139.5539 211° Southwest  Level FlightAware Approximate
Sat 08:53:32 PM 79.1793 139.2049 210° Southwest  Level FlightAware Approximate
Sat 08:54:32 PM 79.0678 138.8630 210° Southwest  Level FlightAware Approximate
Sat 08:55:32 PM 78.9560 138.5279 210° Southwest  Level FlightAware Approximate
Sat 08:56:32 PM 78.8438 138.1994 209° Southwest  Level FlightAware Approximate
Sat 08:57:32 PM 78.7313 137.8774 209° Southwest  Level FlightAware Approximate
Sat 08:58:32 PM 78.6185 137.5617 209° Southwest  Level FlightAware Approximate
Sat 08:59:32 PM 78.5053 137.2521 208° Southwest  Level FlightAware Approximate
Sat 09:00:32 PM 78.3918 136.9485 208° Southwest  Level FlightAware Approximate
Sat 09:01:32 PM 78.2779 136.6507 208° Southwest  Level FlightAware Approximate
Sat 09:02:32 PM 78.1641 136.3593 207° Southwest  Level FlightAware Approximate
Sat 09:03:32 PM 78.0500 136.0733 207° Southwest  Level FlightAware Approximate
Sat 09:04:32 PM 77.9355 135.7926 207° Southwest  Level FlightAware Approximate
Sat 09:05:32 PM 77.8208 135.5172 207° Southwest  Level FlightAware Approximate
Sat 09:06:32 PM 77.7059 135.2469 206° Southwest  Level FlightAware Approximate
Sat 09:07:32 PM 77.5906 134.9814 206° Southwest  Level FlightAware Approximate
Sat 09:08:32 PM 77.4752 134.7208 206° Southwest  Level FlightAware Approximate
Sat 09:09:32 PM 77.3594 134.4649 206° Southwest  Level FlightAware Approximate
Sat 09:10:32 PM 77.2434 134.2136 205° Southwest  Level FlightAware Approximate
Sat 09:11:32 PM 77.1272 133.9667 205° Southwest  Level FlightAware Approximate
Sat 09:12:32 PM 77.0108 133.7241 205° Southwest  Level FlightAware Approximate
Sat 09:13:32 PM 76.8942 133.4858 205° Southwest  Level FlightAware Approximate
Sat 09:14:32 PM 76.7773 133.2517 204° Southwest  Level FlightAware Approximate
Sat 09:15:32 PM 76.6602 133.0215 204° Southwest  Level FlightAware Approximate
Sat 09:16:32 PM 76.5429 132.7953 204° Southwest  Level FlightAware Approximate
Sat 09:17:32 PM 76.4255 132.5730 204° Southwest  Level FlightAware Approximate
Sat 09:18:32 PM 76.3078 132.3544 204° Southwest  Level FlightAware Approximate
Sat 09:19:32 PM 76.1899 132.1394 203° Southwest  Level FlightAware Approximate
Sat 09:20:32 PM 76.0719 131.9280 203° Southwest  Level FlightAware Approximate
Sat 09:21:32 PM 75.9537 131.7202 203° Southwest  Level FlightAware Approximate
Sat 09:22:32 PM 75.8353 131.5157 203° Southwest  Level FlightAware Approximate
Sat 09:23:32 PM 75.7167 131.3145 203° Southwest  Level FlightAware Approximate
Sat 09:24:32 PM 75.5980 131.1166 202° Southwest  Level FlightAware Approximate
Sat 09:25:32 PM 75.4791 130.9218 202° Southwest  Level FlightAware Approximate
Sat 09:26:32 PM 75.3600 130.7302 202° Southwest  Level FlightAware Approximate
Sat 09:27:32 PM 75.2408 130.5415 202° Southwest  Level FlightAware Approximate
Sat 09:28:32 PM 75.1215 130.3559 202° Southwest  Level FlightAware Approximate
Sat 09:29:32 PM 75.0020 130.1731 201° Southwest  Level FlightAware Approximate
Sat 09:30:32 PM 74.8823 129.9931 201° Southwest  Level FlightAware Approximate
Sat 09:31:32 PM 74.7625 129.8159 201° Southwest  Level FlightAware Approximate
Sat 09:32:32 PM 74.6426 129.6415 201° Southwest  Level FlightAware Approximate
Sat 09:33:32 PM 74.5225 129.4696 201° Southwest  Level FlightAware Approximate
Sat 09:34:32 PM 74.4023 129.3004 201° Southwest  Level FlightAware Approximate
Sat 09:35:32 PM 74.2820 129.1336 200° South  Level FlightAware Approximate
Sat 09:36:32 PM 74.1616 128.9693 200° South  Level FlightAware Approximate
Sat 09:37:32 PM 74.0410 128.8075 200° South  Level FlightAware Approximate
Sat 09:38:32 PM 73.9203 128.6480 200° South  Level FlightAware Approximate
Sat 09:39:32 PM 73.7996 128.4908 200° South  Level FlightAware Approximate
Sat 09:40:32 PM 73.6786 128.3359 200° South  Level FlightAware Approximate
Sat 09:41:32 PM 73.5576 128.1832 200° South  Level FlightAware Approximate
Sat 09:42:32 PM 73.4365 128.0327 199° South  Level FlightAware Approximate
Sat 09:43:32 PM 73.3152 127.8843 199° South  Level FlightAware Approximate
Sat 09:44:32 PM 73.1939 127.7380 199° South  Level FlightAware Approximate
Sat 09:45:32 PM 73.0724 127.5938 199° South  Level FlightAware Approximate
Sat 09:46:32 PM 72.9509 127.4515 199° South  Level FlightAware Approximate
Sat 09:47:32 PM 72.8292 127.3112 199° South  Level FlightAware Approximate
Sat 09:48:32 PM 72.7075 127.1728 199° South  Level FlightAware Approximate
Sat 09:49:32 PM 72.5857 127.0363 198° South  Level FlightAware Approximate
Sat 09:50:32 PM 72.4638 126.9016 198° South  Level FlightAware Approximate
Sat 09:51:32 PM 72.3417 126.7687 198° South  Level FlightAware Approximate
Sat 09:52:32 PM 72.2196 126.6376 198° South  Level FlightAware Approximate
Sat 09:53:32 PM 72.0975 126.5082 198° South  Level FlightAware Approximate
Sat 09:54:32 PM 71.9752 126.3805 198° South  Level FlightAware Approximate
Sat 09:55:32 PM 71.8528 126.2545 198° South  Level FlightAware Approximate
Sat 09:56:32 PM 71.7304 126.1301 198° South  Level FlightAware Approximate
Sat 09:57:32 PM 71.6079 126.0073 197° South  Level FlightAware Approximate
Sat 09:58:32 PM 71.4853 125.8861 197° South  Level FlightAware Approximate
Sat 09:59:32 PM 71.3626 125.7664 197° South  Level FlightAware Approximate
Sat 10:00:32 PM 71.2399 125.6482 197° South  Level FlightAware Approximate
Sat 10:01:32 PM 71.1171 125.5315 197° South  Level FlightAware Approximate
Sat 10:02:32 PM 70.9942 125.4163 197° South  Level FlightAware Approximate
Sat 10:03:32 PM 70.8712 125.3025 197° South  Level FlightAware Approximate
Sat 10:04:32 PM 70.7482 125.1901 197° South  Level FlightAware Approximate
Sat 10:05:32 PM 70.6251 125.0791 197° South  Level FlightAware Approximate
Sat 10:06:32 PM 70.5019 124.9694 196° South  Level FlightAware Approximate
Sat 10:07:32 PM 70.3787 124.8610 196° South  Level FlightAware Approximate
Sat 10:08:32 PM 70.2554 124.7540 196° South  Level FlightAware Approximate
Sat 10:09:32 PM 70.1320 124.6482 196° South  Level FlightAware Approximate
Sat 10:10:32 PM 70.0086 124.5437 196° South  Level FlightAware Approximate
Sat 10:11:32 PM 69.8851 124.4404 196° South  Level FlightAware Approximate
Sat 10:12:32 PM 69.7616 124.3383 196° South  Level FlightAware Approximate
Sat 10:13:32 PM 69.6380 124.2374 196° South  Level FlightAware Approximate
Sat 10:14:32 PM 69.5143 124.1376 196° South  Level FlightAware Approximate
Sat 10:15:32 PM 69.3906 124.0390 196° South  Level FlightAware Approximate
Sat 10:16:32 PM 69.2669 123.9415 195° South  Level FlightAware Approximate
Sat 10:17:32 PM 69.1431 123.8452 195° South  Level FlightAware Approximate
Sat 10:18:32 PM 69.0192 123.7499 195° South  Level FlightAware Approximate
Sat 10:19:32 PM 68.8953 123.6557 195° South  Level FlightAware Approximate
Sat 10:20:32 PM 68.7713 123.5626 195° South  Level FlightAware Approximate
Sat 10:21:32 PM 68.6473 123.4704 195° South  Level FlightAware Approximate
Sat 10:22:32 PM 68.5232 123.3793 195° South  Level FlightAware Approximate
Sat 10:23:32 PM 68.3991 123.2892 195° South  Level FlightAware Approximate
Sat 10:24:32 PM 68.2749 123.2001 195° South  Level FlightAware Approximate
Sat 10:25:32 PM 68.1507 123.1119 195° South  Level FlightAware Approximate
Sat 10:26:32 PM 68.0264 123.0247 195° South  Level FlightAware Approximate
Sat 10:27:32 PM 67.9021 122.9384 195° South  Level FlightAware Approximate
Sat 10:28:32 PM 67.7777 122.8531 194° South  Level FlightAware Approximate
Sat 10:29:32 PM 67.6533 122.7686 194° South  Level FlightAware Approximate
Sat 10:30:32 PM 67.5289 122.6850 194° South  Level FlightAware Approximate
Sat 10:31:32 PM 67.4044 122.6023 194° South  Level FlightAware Approximate
Sat 10:32:32 PM 67.2799 122.5205 194° South  Level FlightAware Approximate
Sat 10:33:32 PM 67.1553 122.4395 194° South  Level FlightAware Approximate
Sat 10:34:32 PM 67.0307 122.3593 194° South  Level FlightAware Approximate
Sat 10:35:32 PM 66.9061 122.2800 194° South  Level FlightAware Approximate
Sat 10:36:32 PM 66.7814 122.2015 194° South  Level FlightAware Approximate
Sat 10:37:32 PM 66.6566 122.1237 194° South  Level FlightAware Approximate
Sat 10:38:32 PM 66.5320 122.0454 194° South  Level FlightAware Approximate
Sat 10:39:32 PM 66.4072 121.9692 194° South  Level FlightAware Approximate
Sat 10:40:32 PM 66.2823 121.8937 194° South  Level FlightAware Approximate
Sat 10:41:32 PM 66.1575 121.8190 194° South  Level FlightAware Approximate
Sat 10:42:32 PM 66.0326 121.7451 193° South  Level FlightAware Approximate
Sat 10:43:32 PM 65.9076 121.6718 193° South  Level FlightAware Approximate
Sat 10:44:32 PM 65.7826 121.5993 193° South  Level FlightAware Approximate
Sat 10:45:32 PM 65.6576 121.5275 193° South  Level FlightAware Approximate
Sat 10:46:32 PM 65.5326 121.4563 193° South  Level FlightAware Approximate
Sat 10:47:32 PM 65.4075 121.3858 193° South  Level FlightAware Approximate
Sat 10:48:32 PM 65.2824 121.3160 193° South  Level FlightAware Approximate
Sat 10:49:32 PM 65.1572 121.2469 193° South  Level FlightAware Approximate
Sat 10:50:32 PM 65.0321 121.1784 193° South  Level FlightAware Approximate
Sat 10:51:32 PM 64.9068 121.1106 193° South  Level FlightAware Approximate
Sat 10:52:32 PM 64.7816 121.0433 193° South  Level FlightAware Approximate
Sat 10:53:32 PM 64.6563 120.9767 193° South  Level FlightAware Approximate
Sat 10:54:32 PM 64.5310 120.9108 193° South  Level FlightAware Approximate
Sat 10:55:32 PM 64.4057 120.8454 193° South  Level FlightAware Approximate
Sat 10:56:32 PM 64.2803 120.7806 193° South  Level FlightAware Approximate
Sat 10:57:32 PM 64.1550 120.7164 193° South  Level FlightAware Approximate
Sat 10:58:32 PM 64.0295 120.6527 192° South  Level FlightAware Approximate
Sat 10:59:32 PM 63.9041 120.5897 192° South  Level FlightAware Approximate
Sat 11:00:32 PM 63.7786 120.5272 192° South  Level FlightAware Approximate
Sat 11:01:32 PM 63.6531 120.4653 192° South  Level FlightAware Approximate
Sat 11:02:32 PM 63.5276 120.4039 192° South  Level FlightAware Approximate
Sat 11:03:32 PM 63.4021 120.3430 192° South  Level FlightAware Approximate
Sat 11:04:32 PM 63.2765 120.2827 192° South  Level FlightAware Approximate
Sat 11:05:32 PM 63.1509 120.2229 192° South  Level FlightAware Approximate
Sat 11:06:32 PM 63.0253 120.1636 192° South  Level FlightAware Approximate
Sat 11:07:32 PM 62.8996 120.1048 192° South  Level FlightAware Approximate
Sat 11:08:32 PM 62.7739 120.0477 192° South  Level FlightAware Approximate
Sat 11:09:32 PM 62.6482 119.9899 192° South  Level FlightAware Approximate
Sat 11:10:32 PM 62.5224 119.9325 192° South  Level FlightAware Approximate
Sat 11:11:32 PM 62.3967 119.8757 192° South  Level FlightAware Approximate
Sat 11:12:32 PM 62.2710 119.8193 192° South  Level FlightAware Approximate
Sat 11:13:32 PM 62.1452 119.7634 192° South  Level FlightAware Approximate
Sat 11:14:32 PM 62.0193 119.7080 192° South  Level FlightAware Approximate
Sat 11:15:32 PM 61.8935 119.6530 192° South  Level FlightAware Approximate
Sat 11:16:32 PM 61.7677 119.5985 192° South  Level FlightAware Approximate
Sat 11:17:32 PM 61.6418 119.5444 191° South  Level FlightAware Approximate
Sat 11:18:32 PM 61.5159 119.4907 191° South  Level FlightAware Approximate
Sat 11:19:32 PM 61.3904 119.4377 191° South  Level FlightAware Approximate
Sat 11:20:32 PM 61.2649 119.3851 191° South  Level FlightAware Approximate
Sat 11:21:32 PM 61.1394 119.3329 191° South  Level FlightAware Approximate
Sat 11:22:32 PM 61.0139 119.2812 193° South  Level FlightAware Approximate
Sat 11:23:32 PM 60.8897 119.2218 191° South  Level FlightAware Approximate
Sat 11:24:32 PM 60.7640 119.1710 191° South  Level FlightAware Approximate
Sat 11:25:32 PM 60.6382 119.1205 191° South  Level FlightAware Approximate
Sat 11:26:32 PM 60.5125 119.0705 191° South  Level FlightAware Approximate
Sat 11:27:32 PM 60.3867 119.0208 191° South  Level FlightAware Approximate
Sat 11:28:32 PM 60.2609 118.9715 191° South  Level FlightAware Approximate
Sat 11:29:32 PM 60.1350 118.9226 191° South  Level FlightAware Approximate
Sat 11:30:32 PM 60.0092 118.8740 191° South  Level FlightAware Approximate
Sat 11:31:32 PM 59.8833 118.8259 191° South  Level FlightAware Approximate
Sat 11:32:32 PM 59.7574 118.7780 191° South  Level FlightAware Approximate
Sat 11:33:32 PM 59.6315 118.7306 191° South  Level FlightAware Approximate
Sat 11:34:32 PM 59.5056 118.6835 191° South  Level FlightAware Approximate
Sat 11:35:32 PM 59.3797 118.6367 191° South  Level FlightAware Approximate
Sat 11:36:32 PM 59.2537 118.5903 191° South  Level FlightAware Approximate
Sat 11:37:32 PM 59.1278 118.5443 191° South  Level FlightAware Approximate
Sat 11:38:32 PM 59.0018 118.4985 191° South  Level FlightAware Approximate
Sat 11:39:32 PM 58.8758 118.4531 191° South  Level FlightAware Approximate
Sat 11:40:32 PM 58.7498 118.4081 190° South  Level FlightAware Approximate
Sat 11:41:32 PM 58.6237 118.3633 190° South  Level FlightAware Approximate
Sat 11:42:32 PM 58.4977 118.3189 190° South  Level FlightAware Approximate
Sat 11:43:32 PM 58.3717 118.2748 190° South  Level FlightAware Approximate
Sat 11:44:32 PM 58.2456 118.2310 190° South  Level FlightAware Approximate
Sat 11:45:32 PM 58.1195 118.1876 190° South  Level FlightAware Approximate
Sat 11:46:32 PM 57.9934 118.1444 190° South  Level FlightAware Approximate
Sat 11:47:32 PM 57.8673 118.1015 190° South  Level FlightAware Approximate
Sat 11:48:32 PM 57.7411 118.0590 190° South  Level FlightAware Approximate
Sat 11:49:32 PM 57.6150 118.0167 190° South  Level FlightAware Approximate
Sat 11:50:32 PM 57.4888 117.9747 190° South  Level FlightAware Approximate
Sat 11:51:32 PM 57.3627 117.9330 189° South  Level FlightAware Approximate
Sat 11:52:32 PM 57.2361 117.8954 193° South  Level FlightAware Approximate
Sat 11:53:32 PM 57.1111 117.8434 193° South  Level FlightAware Approximate
Sat 11:54:32 PM 56.9861 117.7916 193° South  Level FlightAware Approximate
Sat 11:55:32 PM 56.8610 117.7402 193° South  Level FlightAware Approximate
Sat 11:56:32 PM 56.7360 117.6892 193° South  Level FlightAware Approximate
Sat 11:57:32 PM 56.6109 117.6385 193° South  Level FlightAware Approximate
Sat 11:58:32 PM 56.4858 117.5881 192° South  Level FlightAware Approximate
Sat 11:59:32 PM 56.3606 117.5381 192° South  Level FlightAware Approximate
Sun 12:00:32 AM 56.2355 117.4884 192° South  Level FlightAware Approximate
Sun 12:01:32 AM 56.1103 117.4390 192° South  Level FlightAware Approximate
Sun 12:02:32 AM 55.9851 117.3899 192° South  Level FlightAware Approximate
Sun 12:03:32 AM 55.8599 117.3412 192° South  Level FlightAware Approximate
Sun 12:04:32 AM 55.7347 117.2927 192° South  Level FlightAware Approximate
Sun 12:05:32 AM 55.6094 117.2446 192° South  Level FlightAware Approximate
Sun 12:06:32 AM 55.4842 117.1968 192° South  Level FlightAware Approximate
Sun 12:07:32 AM 55.3589 117.1492 192° South  Level FlightAware Approximate
Sun 12:08:32 AM 55.2336 117.1020 192° South  Level FlightAware Approximate
Sun 12:09:32 AM 55.1083 117.0551 192° South  Level FlightAware Approximate
Sun 12:10:32 AM 54.9829 117.0085 192° South  Level FlightAware Approximate
Sun 12:11:32 AM 54.8576 116.9621 192° South  Level FlightAware Approximate
Sun 12:12:32 AM 54.7322 116.9161 192° South  Level FlightAware Approximate
Sun 12:13:32 AM 54.6068 116.8703 192° South  Level FlightAware Approximate
Sun 12:14:32 AM 54.4814 116.8248 192° South  Level FlightAware Approximate
Sun 12:15:32 AM 54.3560 116.7796 192° South  Level FlightAware Approximate
Sun 12:16:32 AM 54.2305 116.7347 192° South  Level FlightAware Approximate
Sun 12:17:32 AM 54.1051 116.6900 192° South  Level FlightAware Approximate
Sun 12:18:32 AM 53.9796 116.6456 192° South  Level FlightAware Approximate
Sun 12:19:32 AM 53.8541 116.6015 192° South  Level FlightAware Approximate
Sun 12:20:32 AM 53.7286 116.5576 192° South  Level FlightAware Approximate
Sun 12:21:32 AM 53.6031 116.5140 192° South  Level FlightAware Approximate
Sun 12:22:32 AM 53.4775 116.4707 192° South  Level FlightAware Approximate
Sun 12:23:32 AM 53.3520 116.4276 192° South  Level FlightAware Approximate
Sun 12:24:32 AM 53.2264 116.3848 192° South  Level FlightAware Approximate
Sun 12:25:32 AM 53.1008 116.3422 191° South  Level FlightAware Approximate
Sun 12:26:32 AM 52.9752 116.2999 191° South  Level FlightAware Approximate
Sun 12:27:32 AM 52.8496 116.2578 191° South  Level FlightAware Approximate
Sun 12:28:32 AM 52.7240 116.2159 191° South  Level FlightAware Approximate
Sun 12:29:32 AM 52.5983 116.1743 191° South  Level FlightAware Approximate
Sun 12:30:32 AM 52.4730 116.1330 191° South  Level FlightAware Approximate
Sun 12:31:32 AM 52.3476 116.0920 191° South  Level FlightAware Approximate
Sun 12:32:32 AM 52.2222 116.0512 191° South  Level FlightAware Approximate
Sun 12:33:32 AM 52.0968 116.0106 191° South  Level FlightAware Approximate
Sun 12:34:32 AM 51.9714 115.9703 191° South  Level FlightAware Approximate
Sun 12:35:32 AM 51.8459 115.9302 191° South  Level FlightAware Approximate
Sun 12:36:32 AM 51.7205 115.8903 194° South  Level FlightAware Approximate
Sun 12:37:32 AM 51.5964 115.8408 194° South  Level FlightAware Approximate
Sun 12:38:32 AM 51.4722 115.7917 194° South  Level FlightAware Approximate
Sun 12:39:32 AM 51.3481 115.7428 194° South  Level FlightAware Approximate
Sun 12:40:32 AM 51.2239 115.6942 194° South  Level FlightAware Approximate
Sun 12:41:32 AM 51.0997 115.6458 194° South  Level FlightAware Approximate
Sun 12:42:32 AM 50.9755 115.5977 194° South  Level FlightAware Approximate
Sun 12:43:32 AM 50.8512 115.5498 194° South  Level FlightAware Approximate
Sun 12:44:32 AM 50.7270 115.5022 194° South  Level FlightAware Approximate
Sun 12:45:32 AM 50.6027 115.4549 194° South  Level FlightAware Approximate
Sun 12:46:32 AM 50.4784 115.4078 194° South  Level FlightAware Approximate
Sun 12:47:32 AM 50.3541 115.3609 193° South  Level FlightAware Approximate
Sun 12:48:32 AM 50.2297 115.3143 193° South  Level FlightAware Approximate
Sun 12:49:32 AM 50.1054 115.2680 195° South  Level FlightAware Approximate
Sun 12:50:32 AM 49.9819 115.2162 195° South  Level FlightAware Approximate
Sun 12:51:32 AM 49.8584 115.1647 195° South  Level FlightAware Approximate
Sun 12:52:32 AM 49.7349 115.1134 195° South  Level FlightAware Approximate
Sun 12:53:32 AM 49.6114 115.0625 195° South  Level FlightAware Approximate
Sun 12:54:32 AM 49.4879 115.0117 195° South  Level FlightAware Approximate
Sun 12:55:32 AM 49.3643 114.9613 195° South  Level FlightAware Approximate
Sun 12:56:32 AM 49.2407 114.9111 195° South  Level FlightAware Approximate
Sun 12:57:32 AM 49.1171 114.8611 195° South  Level FlightAware Approximate
Sun 12:58:32 AM 48.9935 114.8114 195° South  Level FlightAware Approximate
Sun 12:59:32 AM 48.8698 114.7619 195° South  Level FlightAware Approximate
Sun 01:00:32 AM 48.7463 114.7127 195° South  Level FlightAware Approximate
Sun 01:01:32 AM 48.6228 114.6638 195° South  Level FlightAware Approximate
Sun 01:02:32 AM 48.4992 114.6151 195° South  Level FlightAware Approximate
Sun 01:03:32 AM 48.3756 114.5667 168° South  Level FlightAware Approximate
Sun 01:04:32 AM 48.2505 114.6054 168° South  Level FlightAware Approximate
Sun 01:05:32 AM 48.1254 114.6440 168° South  Level FlightAware Approximate
Sun 01:06:32 AM 48.0003 114.6823 168° South  Level FlightAware Approximate
Sun 01:07:32 AM 47.8752 114.7205 168° South  Level FlightAware Approximate
Sun 01:08:32 AM 47.7501 114.7585 168° South  Level FlightAware Approximate
Sun 01:09:32 AM 47.6250 114.7963 169° South  Level FlightAware Approximate
Sun 01:10:32 AM 47.4998 114.8339 169° South  Level FlightAware Approximate
Sun 01:11:32 AM 47.3746 114.8714 169° South  Level FlightAware Approximate
Sun 01:12:32 AM 47.2495 114.9086 169° South  Level FlightAware Approximate
Sun 01:13:32 AM 47.1243 114.9457 169° South  Level FlightAware Approximate
Sun 01:14:32 AM 46.9991 114.9826 169° South  Level FlightAware Approximate
Sun 01:15:32 AM 46.8739 115.0194 169° South  Level FlightAware Approximate
Sun 01:16:32 AM 46.7486 115.0560 169° South  Level FlightAware Approximate
Sun 01:17:32 AM 46.6234 115.0924 171° South  Level FlightAware Approximate
Sun 01:18:32 AM 46.4972 115.1206 171° South  Level FlightAware Approximate
Sun 01:19:32 AM 46.3710 115.1488 171° South  Level FlightAware Approximate
Sun 01:20:32 AM 46.2448 115.1768 171° South  Level FlightAware Approximate
Sun 01:21:32 AM 46.1185 115.2047 171° South  Level FlightAware Approximate
Sun 01:22:32 AM 45.9923 115.2324 171° South  Level FlightAware Approximate
Sun 01:23:32 AM 45.8660 115.2601 171° South  Level FlightAware Approximate
Sun 01:24:32 AM 45.7398 115.2876 171° South  Level FlightAware Approximate
Sun 01:25:32 AM 45.6135 115.3149 171° South  Level FlightAware Approximate
Sun 01:26:32 AM 45.4874 115.3422 171° South  Level FlightAware Approximate
Sun 01:27:32 AM 45.3613 115.3693 171° South  Level FlightAware Approximate
Sun 01:28:32 AM 45.2351 115.3962 171° South  Level FlightAware Approximate
Sun 01:29:32 AM 45.1090 115.4231 171° South  Level FlightAware Approximate
Sun 01:30:32 AM 44.9829 115.4499 171° South  Level FlightAware Approximate
Sun 01:31:32 AM 44.8567 115.4765 172° South  Level FlightAware Approximate
Sun 01:32:32 AM 44.7306 115.5030 172° South  Level FlightAware Approximate
Sun 01:33:32 AM 44.6044 115.5294 172° South  Level FlightAware Approximate
Sun 01:34:32 AM 44.4782 115.5557 172° South  Level FlightAware Approximate
Sun 01:35:32 AM 44.3521 115.5818 172° South  Level FlightAware Approximate
Sun 01:36:32 AM 44.2259 115.6079 172° South  Level FlightAware Approximate
Sun 01:37:32 AM 44.0997 115.6338 172° South  Level FlightAware Approximate
Sun 01:38:32 AM 43.9735 115.6597 172° South  Level FlightAware Approximate
Sun 01:39:32 AM 43.8473 115.6854 172° South  Level FlightAware Approximate
Sun 01:40:32 AM 43.7211 115.7110 172° South  Level FlightAware Approximate
Sun 01:41:32 AM 43.5949 115.7365 172° South  Level FlightAware Approximate
Sun 01:42:32 AM 43.4687 115.7619 172° South  Level FlightAware Approximate
Sun 01:43:32 AM 43.3425 115.7872 172° South  Level FlightAware Approximate
Sun 01:44:32 AM 43.2162 115.8124 172° South  Level FlightAware Approximate
Sun 01:45:32 AM 43.0900 115.8375 172° South  Level FlightAware Approximate
Sun 01:46:32 AM 42.9638 115.8625 172° South  Level FlightAware Approximate
Sun 01:47:32 AM 42.8375 115.8873 172° South  Level FlightAware Approximate
Sun 01:48:32 AM 42.7113 115.9121 172° South  Level FlightAware Approximate
Sun 01:49:32 AM 42.5850 115.9368 172° South  Level FlightAware Approximate
Sun 01:50:32 AM 42.4588 115.9614 172° South  Level FlightAware Approximate
Sun 01:51:32 AM 42.3325 115.9858 172° South  Level FlightAware Approximate
Sun 01:52:32 AM 42.2062 116.0102 172° South  Level FlightAware Approximate
Sun 01:53:32 AM 42.0800 116.0345 172° South  Level FlightAware Approximate
Sun 01:54:32 AM 41.9537 116.0587 172° South  Level FlightAware Approximate
Sun 01:55:32 AM 41.8274 116.0828 172° South  Level FlightAware Approximate
Sun 01:56:32 AM 41.7011 116.1068 172° South  Level FlightAware Approximate
Sun 01:57:32 AM 41.5748 116.1307 172° South  Level FlightAware Approximate
Sun 01:58:32 AM 41.4485 116.1545 172° South  Level FlightAware Approximate
Sun 01:59:32 AM 41.3222 116.1782 172° South  Level FlightAware Approximate
Sun 02:00:32 AM 41.1959 116.2018 172° South  Level FlightAware Approximate
Sun 02:01:32 AM 41.0696 116.2253 172° South  Level FlightAware Approximate
Sun 02:02:32 AM 40.9433 116.2488 172° South  Level FlightAware Approximate
Sun 02:03:32 AM 40.8170 116.2721 172° South  Level FlightAware Approximate
Sun 02:04:32 AM 40.6906 116.2954 172° South  Level FlightAware Approximate
Sun 02:05:32 AM 40.5643 116.3186 172° South  Level FlightAware Approximate
Sun 02:06:32 AM 40.4380 116.3417 168° South  Level FlightAware Approximate
Sun 02:07:32 AM 40.3132 116.3763 168° South  Level FlightAware Approximate
Sun 02:08:32 AM 40.1884 116.4107 168° South  Level FlightAware Approximate
Sun 02:09:32 AM 40.0635 116.4450 168° South  Level FlightAware Approximate
Sun 02:10:32 AM 39.9387 116.4792 168° South  Level FlightAware Approximate
Sun 02:11:32 AM 39.8139 116.5133 168° South  Level FlightAware Approximate
Sun 02:12:32 AM 39.6890 116.5472 168° South  Level FlightAware Approximate
Sun 02:13:32 AM 39.5642 116.5810 168° South  Level FlightAware Approximate
Sun 02:14:32 AM 39.4393 116.6147 168° South  Level FlightAware Approximate
Sun 02:15:32 AM 39.3144 116.6483 168° South  Level FlightAware Approximate
Sun 02:16:32 AM 39.1895 116.6818 168° South  Level FlightAware Approximate
Sun 02:17:32 AM 39.0646 116.7151 168° South  Level FlightAware Approximate
Sun 02:18:32 AM 38.9397 116.7483 168° South  Level FlightAware Approximate
Sun 02:19:32 AM 38.8148 116.7814 168° South  Level FlightAware Approximate
Sun 02:20:32 AM 38.6898 116.8144 168° South  Level FlightAware Approximate
Sun 02:21:32 AM 38.5649 116.8473 168° South  Level FlightAware Approximate
Sun 02:22:32 AM 38.4400 116.8801 168° South  Level FlightAware Approximate
Sun 02:23:32 AM 38.3150 116.9127 168° South  Level FlightAware Approximate
Sun 02:24:32 AM 38.1903 116.9472 168° South  Level FlightAware Approximate
Sun 02:25:32 AM 38.0657 116.9815 168° South  Level FlightAware Approximate
Sun 02:26:32 AM 37.9410 117.0157 168° South  Level FlightAware Approximate
Sun 02:27:32 AM 37.8163 117.0498 168° South  Level FlightAware Approximate
Sun 02:28:32 AM 37.6917 117.0838 168° South  Level FlightAware Approximate
Sun 02:29:32 AM 37.5670 117.1177 168° South  Level FlightAware Approximate
Sun 02:30:32 AM 37.4422 117.1515 168° South  Level FlightAware Approximate
Sun 02:31:32 AM 37.3175 117.1851 157° South  Level FlightAware Approximate
Sun 02:32:32 AM 37.2004 117.2487 157° South  Level FlightAware Approximate
Sun 02:33:32 AM 37.0833 117.3120 157° South  Level FlightAware Approximate
Sun 02:34:32 AM 36.9661 117.3752 157° South  Level FlightAware Approximate
Sun 02:35:32 AM 36.8489 117.4381 157° South  Level FlightAware Approximate
Sun 02:36:32 AM 36.7317 117.5009 157° South  Level FlightAware Approximate
Sun 02:37:32 AM 36.6145 117.5635 157° South  Level FlightAware Approximate
Sun 02:38:32 AM 36.4972 117.6259 157° South  Level FlightAware Approximate
Sun 02:39:32 AM 36.3798 117.6881 157° South  Level FlightAware Approximate
Sun 02:40:32 AM 36.2625 117.7501 157° South  Level FlightAware Approximate
Sun 02:41:32 AM 36.1451 117.8119 157° South  Level FlightAware Approximate
Sun 02:42:32 AM 36.0277 117.8736 157° South  Level FlightAware Approximate
Sun 02:43:32 AM 35.9103 117.9351 156° South  Level FlightAware Approximate
Sun 02:44:32 AM 35.7935 117.9985 156° South  Level FlightAware Approximate
Sun 02:45:32 AM 35.6768 118.0618 156° South  Level FlightAware Approximate
Sun 02:46:32 AM 35.5600 118.1249 156° South  Level FlightAware Approximate
Sun 02:47:32 AM 35.4432 118.1878 156° South  Level FlightAware Approximate
Sun 02:48:32 AM 35.3263 118.2505 156° South  Level FlightAware Approximate
Sun 02:49:32 AM 35.2094 118.3130 155° Southeast  Level FlightAware Approximate
Sun 02:50:32 AM 35.0941 118.3797 144° Southeast  Level FlightAware Approximate
Sun 02:51:32 AM 34.9912 118.4717 144° Southeast  Level FlightAware Approximate
Sun 02:52:32 AM 34.8882 118.5635 144° Southeast  Level FlightAware Approximate
Sun 02:53:32 AM 34.7851 118.6550 144° Southeast  Level FlightAware Approximate
Sun 02:54:32 AM 34.6819 118.7463 144° Southeast  Level FlightAware Approximate
Sun 02:55:32 AM 34.5788 118.8373 144° Southeast  Level FlightAware Approximate
Sun 02:56:32 AM 34.4757 118.9280 144° Southeast  Level FlightAware Approximate
Sun 02:57:32 AM 34.3725 119.0185 144° Southeast  Level FlightAware Approximate
Sun 02:58:32 AM 34.2692 119.1088 144° Southeast  Level FlightAware Approximate
Sun 02:59:32 AM 34.1657 119.1990 144° Southeast  Level FlightAware Approximate
Sun 03:00:32 AM 34.0621 119.2890 144° Southeast  Level FlightAware Approximate
Sun 03:01:32 AM 33.9585 119.3787 144° Southeast  Level FlightAware Approximate
Sun 03:02:32 AM 33.8549 119.4682 144° Southeast  Level FlightAware Approximate
Sun 03:03:32 AM 33.7511 119.5575 144° Southeast  Level FlightAware Approximate
Sun 03:04:32 AM 33.6473 119.6466 144° Southeast  Level FlightAware Approximate
Sun 03:05:32 AM 33.5434 119.7355 145° Southeast  Level FlightAware Approximate
Sun 03:06:32 AM 33.4395 119.8242 145° Southeast  Level FlightAware Approximate
Sun 03:07:32 AM 33.3355 119.9126 145° Southeast  Level FlightAware Approximate
Sun 03:08:32 AM 33.2314 120.0009 145° Southeast  Level FlightAware Approximate
Sun 03:09:32 AM 33.1273 120.0889 145° Southeast  Level FlightAware Approximate
Sun 03:10:32 AM 33.0231 120.1767 145° Southeast  Level FlightAware Approximate
Sun 03:11:32 AM 32.9189 120.2643 145° Southeast  Level FlightAware Approximate
Sun 03:12:32 AM 32.8146 120.3517 145° Southeast  Level FlightAware Approximate
Sun 03:13:32 AM 32.7102 120.4389 145° Southeast  Level FlightAware Approximate
Sun 03:14:32 AM 32.6058 120.5259 145° Southeast  Level FlightAware Approximate
Sun 03:15:32 AM 32.5012 120.6128 145° Southeast  Level FlightAware Approximate
Sun 03:16:32 AM 32.3965 120.6995 145° Southeast  Level FlightAware Approximate
Sun 03:17:32 AM 32.2918 120.7860 145° Southeast  Level FlightAware Approximate
Sun 03:18:32 AM 32.1870 120.8723 145° Southeast  Level FlightAware Approximate
Sun 03:19:32 AM 32.0822 120.9584 145° Southeast  Level FlightAware Approximate
Sun 03:20:32 AM 31.9773 121.0443 145° Southeast  Level FlightAware Approximate
Sun 03:21:32 AM 31.8723 121.1300 145° Southeast  Level FlightAware Approximate
Sun 03:22:32 AM 31.7673 121.2155 145° Southeast  Level FlightAware Approximate
Sun 03:23:32 AM 31.6622 121.3008 145° Southeast  Level FlightAware Approximate
Sun 03:24:32 AM 31.5571 121.3859 145° Southeast  Level FlightAware Approximate
Sun 03:25:32 AM 31.4519 121.4709 145° Southeast  Level FlightAware Approximate
Sun 03:26:32 AM 31.3467 121.5556 146° Southeast  Level FlightAware Approximate
Sun 03:27:32 AM 31.2414 121.6402 137° Southeast  Level FlightAware Approximate
Sun 03:28:32 AM 31.1509 121.7393 100° East  Level FlightAware Approximate
Sun 03:29:32 AM 31.1283 121.8862 292° West  Level Estimated
Sun 03:30:32 AM 31.6718 120.2444 112° Southeast  Level FlightAware Approximate
Sun 03:31:32 AM 31.6244 120.3837 112° Southeast  Level FlightAware Approximate
Sun 03:32:32 AM 31.5768 120.5229 112° Southeast  Level FlightAware Approximate
Sun 03:33:32 AM 31.5292 120.6619 112° Southeast  Level FlightAware Approximate
Sun 03:34:32 AM 31.4813 120.8007 112° Southeast  Level FlightAware Approximate
Sun 03:35:32 AM 31.4333 120.9395 112° Southeast  Level FlightAware Approximate
Sun 03:36:32 AM 31.3852 121.0780 112° Southeast  Level FlightAware Approximate
Sun 03:37:32 AM 31.3369 121.2165 112° Southeast  Level FlightAware Approximate
Sun 03:38:32 AM 31.2885 121.3548 112° Southeast  Level FlightAware Approximate
Sun 03:39:32 AM 31.2399 121.4930 112° Southeast  Level FlightAware Approximate
Sun 03:40:32 AM 31.1911 121.6310 114° Southeast  Level FlightAware Approximate
Sun 03:41:32 AM 31.1397 121.7675 82° East  Level FlightAware Approximate
Sun 03:42:32 AM 31.1582 121.9152 262° West  Level Estimated
Sun 03:43:32 AM 31.1397 121.7675 82° East  Level Estimated
Sun 03:44:32 AM 31.1582 121.9152 258° West  Level Estimated
Sun 03:45:32 AM 31.1333 121.7833 39° Northeast  Level FlightAware Approximate
Sun 03:46:32 AM 31.2322 121.8778 39° Northeast  Level Estimated

Login

Don't have an account? Register now (free) for customized features, flight alerts, and more!